| time (UTC) | temp C | wind direction | speed KPH | gust KPH | rain 1hr cm | rain 24hr cm | rain mn cm | humidity % | barometer mb |
| 20260507160811 | 13 | 9 | 0.0 | 4.8 | 0.00 | 0.08 | 0.08 | 74 | 1011.7 |
| 20260507153211 | 13 | 33 | 1.6 | 6.4 | 0.00 | 0.10 | 0.08 | 74 | 1011.6 |
| 20260507152311 | 13 | 38 | 3.2 | 11.3 | 0.00 | 0.10 | 0.08 | 73 | 1011.4 |
| 20260507151411 | 13 | 24 | 3.2 | 11.3 | 0.00 | 0.10 | 0.08 | 75 | 1011.6 |
| 20260507150511 | 13 | 36 | 1.6 | 6.4 | 0.00 | 0.10 | 0.08 | 79 | 1011.7 |
| 20260507144711 | 12 | 36 | 3.2 | 14.5 | 0.00 | 0.10 | 0.08 | 80 | 1011.7 |
| 20260507143811 | 12 | 45 | 3.2 | 14.5 | 0.00 | 0.15 | 0.08 | 81 | 1011.8 |
| 20260507142011 | 12 | 36 | 1.6 | 12.9 | 0.00 | 0.15 | 0.08 | 83 | 1012.0 |
| 20260507141111 | 12 | 343 | 0.0 | 4.8 | 0.00 | 0.18 | 0.08 | 84 | 1012.1 |
| 20260507140211 | 12 | 43 | 3.2 | 17.7 | 0.00 | 0.20 | 0.08 | 82 | 1012.3 |
| 20260507135311 | 12 | 40 | 3.2 | 11.3 | 0.00 | 0.20 | 0.08 | 83 | 1012.3 |
| 20260507134410 | 12 | 14 | 1.6 | 8.0 | 0.00 | 0.23 | 0.08 | 84 | 1012.1 |
| 20260507133510 | 12 | 9 | 0.0 | 3.2 | 0.00 | 0.25 | 0.08 | 84 | 1012.1 |
| 20260507132611 | 12 | 58 | 0.0 | 6.4 | 0.00 | 0.25 | 0.08 | 84 | 1012.0 |
| 20260507130810 | 12 | 38 | 3.2 | 11.3 | 0.00 | 0.25 | 0.08 | 84 | 1011.8 |
| 20260507125011 | 13 | 37 | 0.0 | 4.8 | 0.00 | 0.25 | 0.08 | 85 | 1011.8 |
| 20260507123211 | 13 | 31 | 1.6 | 6.4 | 0.00 | 0.28 | 0.08 | 85 | 1011.9 |
| 20260507121411 | 13 | 29 | 3.2 | 9.7 | 0.00 | 0.30 | 0.08 | 86 | 1011.6 |
| 20260507120511 | 12 | 31 | 3.2 | 14.5 | 0.00 | 0.30 | 0.08 | 88 | 1011.5 |
| 20260507113810 | 12 | 60 | 1.6 | 4.8 | 0.00 | 0.30 | 0.08 | 90 | 1011.4 |
| 20260507112911 | 12 | 66 | 1.6 | 6.4 | 0.00 | 0.30 | 0.08 | 90 | 1011.2 |
| 20260507112010 | 12 | 55 | 1.6 | 6.4 | 0.00 | 0.30 | 0.08 | 91 | 1011.0 |
| 20260507111110 | 12 | 49 | 1.6 | 8.0 | 0.00 | 0.30 | 0.08 | 91 | 1011.0 |
| 20260507110210 | 12 | 21 | 1.6 | 4.8 | 0.00 | 0.30 | 0.08 | 91 | 1011.2 |
| 20260507105310 | 12 | 58 | 0.0 | 4.8 | 0.00 | 0.30 | 0.08 | 91 | 1011.4 |
| 20260507104410 | 12 | 52 | 1.6 | 4.8 | 0.00 | 0.30 | 0.08 | 91 | 1011.1 |
| 20260507103510 | 12 | 27 | 1.6 | 8.0 | 0.00 | 0.30 | 0.08 | 91 | 1010.9 |
| 20260507102610 | 12 | 29 | 1.6 | 6.4 | 0.00 | 0.30 | 0.08 | 92 | 1011.0 |
| 20260507101710 | 12 | 11 | 0.0 | 4.8 | 0.00 | 0.30 | 0.08 | 92 | 1011.1 |
| 20260507100810 | 12 | 24 | 0.0 | 4.8 | 0.00 | 0.30 | 0.08 | 92 | 1010.2 |
| 20260507095910 | 12 | 31 | 0.0 | 4.8 | 0.00 | 0.30 | 0.08 | 91 | 1010.4 |
| 20260507095010 | 12 | 30 | 0.0 | 3.2 | 0.00 | 0.30 | 0.08 | 91 | 1010.8 |
| 20260507094110 | 12 | 31 | 0.0 | 1.6 | 0.00 | 0.30 | 0.08 | 91 | 1010.9 |
| 20260507093210 | 12 | 29 | 0.0 | 3.2 | 0.00 | 0.30 | 0.08 | 91 | 1010.8 |
| 20260507092310 | 12 | 23 | 0.0 | 4.8 | 0.00 | 0.30 | 0.08 | 91 | 1010.9 |
| 20260507091410 | 12 | 30 | 1.6 | 4.8 | 0.00 | 0.30 | 0.08 | 91 | 1010.5 |
| 20260507090510 | 12 | 26 | 1.6 | 4.8 | 0.00 | 0.30 | 0.08 | 91 | 1010.8 |
| 20260507084710 | 12 | 14 | 1.6 | 11.3 | 0.00 | 0.30 | 0.08 | 90 | 1010.6 |
| 20260507083810 | 13 | 31 | 3.2 | 8.0 | 0.00 | 0.30 | 0.08 | 90 | 1010.7 |
| 20260507082910 | 13 | 39 | 3.2 | 16.1 | 0.00 | 0.30 | 0.08 | 90 | 1010.3 |
| 20260507082010 | 13 | 34 | 3.2 | 11.3 | 0.00 | 0.30 | 0.08 | 90 | 1010.5 |
| 20260507080209 | 13 | 11 | 3.2 | 8.0 | 0.00 | 0.30 | 0.08 | 91 | 1010.7 |
| 20260507075309 | 13 | 2 | 4.8 | 12.9 | 0.00 | 0.30 | 0.08 | 91 | 1010.3 |
| 20260507074409 | 13 | 38 | 4.8 | 12.9 | 0.00 | 0.30 | 0.08 | 91 | 1010.3 |
| 20260507073509 | 14 | 43 | 4.8 | 14.5 | 0.03 | 0.30 | 0.08 | 91 | 1010.0 |
| 20260507072609 | 14 | 60 | 3.2 | 11.3 | 0.03 | 0.30 | 0.08 | 92 | 1009.9 |
| 20260507071709 | 15 | 55 | 4.8 | 14.5 | 0.05 | 0.30 | 0.08 | 91 | 1009.4 |
| 20260507070809 | 15 | 35 | 3.2 | 12.9 | 0.05 | 0.30 | 0.08 | 92 | 1009.9 |
| 20260507065909 | 15 | 23 | 3.2 | 12.9 | 0.05 | 0.30 | 0.08 | 92 | 1009.9 |
| 20260507065009 | 16 | 20 | 3.2 | 11.3 | 0.08 | 0.30 | 0.08 | 92 | 1009.7 |
| 20260507064109 | 16 | 356 | 3.2 | 16.1 | 0.08 | 0.30 | 0.08 | 92 | 1009.7 |
| 20260507063209 | 16 | 23 | 4.8 | 19.3 | 0.05 | 0.28 | 0.05 | 92 | 1009.5 |
| 20260507061409 | 17 | 44 | 1.6 | 9.7 | 0.03 | 0.25 | 0.03 | 92 | 1009.2 |
| 20260507055609 | 18 | 24 | 1.6 | 12.9 | 0.03 | 0.25 | 0.03 | 92 | 1008.6 |
| 20260507053809 | 18 | 1 | 0.0 | 3.2 | 0.00 | 0.23 | 0.00 | 90 | 1008.5 |
| 20260507052909 | 18 | 0 | 0.0 | 0.0 | 0.00 | 0.23 | 0.00 | 90 | 1008.4 |
| 20260507052009 | 18 | 0 | 0.0 | 0.0 | 0.00 | 0.23 | 0.00 | 90 | 1008.6 |
| 20260507051108 | 18 | 0 | 0.0 | 0.0 | 0.00 | 0.23 | 0.00 | 90 | 1008.9 |
| 20260507050209 | 19 | 241 | 0.0 | 3.2 | 0.00 | 0.23 | 0.00 | 89 | 1009.1 |
| 20260507044408 | 19 | 294 | 1.6 | 8.0 | 0.00 | 0.23 | 0.00 | 89 | 1009.1 |
| 20260507043509 | 19 | 294 | 1.6 | 8.0 | 0.00 | 0.23 | 0.00 | 89 | 1009.0 |
| 20260507042608 | 19 | 239 | 1.6 | 6.4 | 0.00 | 0.23 | 0.00 | 88 | 1008.8 |
| 20260507041709 | 19 | 251 | 1.6 | 8.0 | 0.00 | 0.23 | 0.00 | 88 | 1008.8 |
| 20260507040809 | 19 | 264 | 3.2 | 9.7 | 0.00 | 0.23 | 0.00 | 88 | 1008.8 |
| 20260507035909 | 19 | 273 | 3.2 | 12.9 | 0.00 | 0.23 | 0.23 | 88 | 1008.7 |
| 20260507035008 | 19 | 219 | 3.2 | 11.3 | 0.00 | 0.23 | 0.23 | 88 | 1008.9 |
| 20260507034109 | 19 | 228 | 1.6 | 6.4 | 0.00 | 0.23 | 0.23 | 88 | 1009.0 |
| 20260507032308 | 19 | 273 | 1.6 | 6.4 | 0.00 | 0.23 | 0.23 | 88 | 1008.9 |
| 20260507031408 | 19 | 287 | 1.6 | 6.4 | 0.00 | 0.23 | 0.23 | 88 | 1009.1 |
| 20260507030508 | 19 | 270 | 1.6 | 6.4 | 0.00 | 0.23 | 0.23 | 88 | 1009.2 |
| 20260507024708 | 19 | 222 | 1.6 | 8.0 | 0.00 | 0.23 | 0.23 | 88 | 1008.5 |
| 20260507022908 | 19 | 194 | 3.2 | 11.3 | 0.00 | 0.23 | 0.23 | 87 | 1008.5 |
| 20260507022008 | 19 | 188 | 3.2 | 11.3 | 0.00 | 0.23 | 0.23 | 87 | 1008.4 |
| 20260507021108 | 19 | 195 | 1.6 | 6.4 | 0.00 | 0.23 | 0.23 | 87 | 1008.4 |
| 20260507020208 | 19 | 219 | 3.2 | 8.0 | 0.00 | 0.23 | 0.23 | 87 | 1008.6 |
| 20260507015308 | 19 | 192 | 3.2 | 12.9 | 0.00 | 0.23 | 0.23 | 87 | 1008.9 |
| 20260507014408 | 19 | 193 | 3.2 | 8.0 | 0.00 | 0.23 | 0.23 | 86 | 1008.8 |
| 20260507013508 | 19 | 194 | 1.6 | 9.7 | 0.00 | 0.23 | 0.23 | 86 | 1008.8 |
| 20260507012608 | 19 | 228 | 3.2 | 11.3 | 0.00 | 0.23 | 0.23 | 86 | 1008.9 |
| 20260507011708 | 19 | 216 | 1.6 | 9.7 | 0.00 | 0.23 | 0.23 | 86 | 1008.9 |
| 20260507005008 | 19 | 197 | 3.2 | 9.7 | 0.00 | 0.23 | 0.23 | 85 | 1008.4 |
| 20260507004108 | 19 | 221 | 3.2 | 11.3 | 0.00 | 0.23 | 0.23 | 85 | 1008.6 |
| 20260507003208 | 20 | 220 | 3.2 | 11.3 | 0.00 | 0.23 | 0.23 | 84 | 1008.7 |
| 20260507002308 | 20 | 200 | 3.2 | 9.7 | 0.00 | 0.23 | 0.23 | 84 | 1008.5 |
| 20260507001408 | 20 | 205 | 3.2 | 11.3 | 0.00 | 0.23 | 0.23 | 83 | 1008.7 |
| 20260507000508 | 20 | 237 | 3.2 | 12.9 | 0.00 | 0.23 | 0.23 | 83 | 1008.8 |
| 20260506235608 | 20 | 243 | 3.2 | 9.7 | 0.00 | 0.23 | 0.23 | 82 | 1008.7 |
| 20260506234708 | 20 | 230 | 3.2 | 11.3 | 0.00 | 0.23 | 0.23 | 82 | 1008.7 |
| 20260506232908 | 20 | 230 | 4.8 | 16.1 | 0.00 | 0.23 | 0.23 | 80 | 1008.4 |
| 20260506232008 | 21 | 222 | 4.8 | 16.1 | 0.00 | 0.23 | 0.23 | 80 | 1008.2 |
| 20260506231107 | 21 | 229 | 6.4 | 16.1 | 0.00 | 0.23 | 0.23 | 79 | 1008.3 |
| 20260506230208 | 21 | 213 | 4.8 | 14.5 | 0.00 | 0.23 | 0.23 | 79 | 1008.2 |
| 20260506225308 | 21 | 239 | 4.8 | 14.5 | 0.00 | 0.23 | 0.23 | 79 | 1008.3 |
| 20260506224407 | 21 | 242 | 3.2 | 12.9 | 0.00 | 0.23 | 0.23 | 79 | 1008.4 |
| 20260506222607 | 21 | 214 | 4.8 | 19.3 | 0.00 | 0.23 | 0.23 | 80 | 1008.3 |
| 20260506221707 | 21 | 225 | 4.8 | 14.5 | 0.00 | 0.23 | 0.23 | 80 | 1008.4 |
| 20260506220807 | 21 | 227 | 3.2 | 14.5 | 0.00 | 0.23 | 0.23 | 80 | 1008.4 |
| 20260506215907 | 21 | 203 | 4.8 | 12.9 | 0.00 | 0.23 | 0.23 | 80 | 1008.4 |
| 20260506215007 | 21 | 203 | 4.8 | 16.1 | 0.00 | 0.23 | 0.23 | 79 | 1008.3 |
| 20260506214107 | 21 | 224 | 4.8 | 16.1 | 0.00 | 0.23 | 0.23 | 79 | 1008.4 |
| 20260506212307 | 21 | 210 | 6.4 | 16.1 | 0.00 | 0.23 | 0.23 | 78 | 1008.5 |
| 20260506211407 | 21 | 220 | 3.2 | 12.9 | 0.00 | 0.23 | 0.23 | 78 | 1008.6 |
| 20260506210507 | 21 | 250 | 6.4 | 19.3 | 0.00 | 0.23 | 0.23 | 78 | 1008.6 |
| 20260506204707 | 21 | 259 | 4.8 | 17.7 | 0.00 | 0.23 | 0.23 | 78 | 1008.5 |
| 20260506202907 | 21 | 201 | 6.4 | 22.5 | 0.00 | 0.23 | 0.23 | 78 | 1008.3 |
| 20260506201107 | 21 | 205 | 6.4 | 17.7 | 0.00 | 0.23 | 0.23 | 80 | 1008.5 |
| 20260506200207 | 20 | 237 | 3.2 | 11.3 | 0.00 | 0.23 | 0.23 | 83 | 1008.8 |
| 20260506194407 | 19 | 228 | 4.8 | 16.1 | 0.00 | 0.23 | 0.23 | 83 | 1008.5 |
| 20260506193507 | 19 | 192 | 3.2 | 16.1 | 0.00 | 0.23 | 0.23 | 83 | 1008.4 |
| 20260506192607 | 19 | 225 | 3.2 | 16.1 | 0.00 | 0.23 | 0.23 | 83 | 1008.7 |
| 20260506191707 | 19 | 254 | 4.8 | 17.7 | 0.00 | 0.23 | 0.23 | 84 | 1008.9 |
| 20260506190807 | 19 | 218 | 6.4 | 22.5 | 0.00 | 0.23 | 0.23 | 83 | 1008.9 |
| 20260506184107 | 18 | 231 | 3.2 | 14.5 | 0.00 | 0.23 | 0.23 | 85 | 1009.1 |
| 20260506182307 | 18 | 225 | 6.4 | 14.5 | 0.00 | 0.23 | 0.23 | 86 | 1009.4 |
| 20260506181407 | 18 | 229 | 4.8 | 14.5 | 0.00 | 0.23 | 0.23 | 86 | 1009.4 |
| 20260506180507 | 18 | 202 | 4.8 | 14.5 | 0.00 | 0.23 | 0.23 | 86 | 1009.5 |
| 20260506175606 | 18 | 233 | 6.4 | 20.9 | 0.00 | 0.23 | 0.23 | 86 | 1009.7 |
| 20260506174706 | 18 | 237 | 4.8 | 19.3 | 0.00 | 0.23 | 0.23 | 86 | 1009.7 |
| 20260506173806 | 18 | 221 | 6.4 | 16.1 | 0.00 | 0.23 | 0.23 | 87 | 1009.6 |
| 20260506172906 | 18 | 229 | 4.8 | 14.5 | 0.00 | 0.23 | 0.23 | 88 | 1009.8 |
| 20260506172006 | 17 | 236 | 4.8 | 17.7 | 0.00 | 0.23 | 0.23 | 88 | 1009.8 |
| 20260506171106 | 17 | 216 | 4.8 | 12.9 | 0.00 | 0.23 | 0.23 | 89 | 1009.9 |
| 20260506170206 | 17 | 203 | 4.8 | 16.1 | 0.00 | 0.23 | 0.23 | 89 | 1010.0 |
| 20260506165307 | 17 | 205 | 4.8 | 19.3 | 0.00 | 0.23 | 0.23 | 89 | 1010.0 |
| 20260506164406 | 17 | 196 | 4.8 | 17.7 | 0.03 | 0.23 | 0.23 | 89 | 1010.0 |
| 20260506163506 | 17 | 201 | 6.4 | 17.7 | 0.03 | 0.23 | 0.23 | 90 | 1010.2 |
| 20260506162606 | 17 | 213 | 4.8 | 17.7 | 0.03 | 0.23 | 0.23 | 91 | 1010.3 |
| 20260506161706 | 17 | 230 | 4.8 | 16.1 | 0.03 | 0.23 | 0.23 | 92 | 1010.5 |